Time;durP1;ratioP1;P1;durP2;ratioP2;P2;SDS_P1;SDS_P2;PMS_P1;PMS_P2;Temp;Humidity;BMP_temperature;BMP_pressure;BME280_temperature;BME280_humidity;BME280_pressure;Samples;Min_cycle;Max_cycle;Signal;HPM_P1;HPM_P2
2022/01/21 00:00:59;;;;;;;11.90;3.30;;;2.20;99.90;;;;;;5108840;28;20277;-71
2022/01/21 00:03:26;;;;;;;17.35;5.22;;;2.20;99.90;;;;;;5108964;28;20182;-70
2022/01/21 00:05:53;;;;;;;10.70;3.08;;;2.20;99.90;;;;;;5109087;28;20361;-71
2022/01/21 00:08:21;;;;;;;12.52;3.30;;;2.20;99.90;;;;;;5108916;28;20307;-72
2022/01/21 00:10:50;;;;;;;14.63;4.05;;;2.10;99.90;;;;;;5108149;28;20241;-71
2022/01/21 00:13:22;;;;;;;13.93;4.00;;;2.10;99.90;;;;;;5105738;28;20253;-71
2022/01/21 00:15:49;;;;;;;6.75;2.72;;;2.20;99.90;;;;;;5109224;28;20187;-71
2022/01/21 00:18:20;;;;;;;8.45;3.50;;;2.20;99.90;;;;;;5109564;28;20262;-70
2022/01/21 00:31:45;;;;;;;15.10;4.60;;;2.10;99.90;;;;;;5115577;28;20240;-71
2022/01/21 00:34:13;;;;;;;15.50;3.83;;;2.10;99.90;;;;;;5111103;28;20237;-70
2022/01/21 00:36:40;;;;;;;14.60;3.70;;;2.10;99.90;;;;;;5110207;28;20193;-70
2022/01/21 00:39:08;;;;;;;20.27;4.57;;;2.00;99.90;;;;;;5109572;28;20243;-71
2022/01/21 00:41:40;;;;;;;12.50;4.10;;;2.10;99.90;;;;;;5108517;28;20214;-71
2022/01/21 00:44:07;;;;;;;8.52;3.20;;;2.10;99.90;;;;;;5109269;28;20197;-72
2022/01/21 00:46:35;;;;;;;17.67;4.07;;;2.00;99.90;;;;;;5109016;28;20208;-71
2022/01/21 00:49:03;;;;;;;14.30;3.33;;;2.10;99.90;;;;;;5108444;28;20245;-70
2022/01/21 00:51:32;;;;;;;18.95;3.30;;;2.10;99.90;;;;;;5107522;28;20213;-71
2022/01/21 00:53:59;;;;;;;6.60;2.45;;;2.10;99.90;;;;;;5108218;28;20191;-72
2022/01/21 00:56:26;;;;;;;13.90;5.68;;;2.10;99.90;;;;;;5108314;28;20190;-73
2022/01/21 00:58:52;;;;;;;10.90;3.97;;;2.00;99.90;;;;;;5108306;28;20309;-71
2022/01/21 01:01:19;;;;;;;16.00;2.85;;;2.00;99.90;;;;;;5107327;28;20230;-72
2022/01/21 01:03:46;;;;;;;11.30;3.25;;;1.90;99.90;;;;;;5108141;28;20177;-72
2022/01/21 01:06:13;;;;;;;11.95;2.80;;;1.90;99.90;;;;;;5108414;28;20237;-72
2022/01/21 01:08:42;;;;;;;30.00;4.72;;;1.80;99.90;;;;;;5107620;28;20405;-72
2022/01/21 01:11:29;;;;;;;12.20;4.00;;;1.80;99.90;;;;;;5107293;28;20206;-72
2022/01/21 01:22:10;;;;;;;8.48;2.83;;;1.70;99.90;;;;;;5107539;28;20276;-71
2022/01/21 01:27:39;;;;;;;10.93;3.10;;;1.80;99.90;;;;;;5107880;28;20232;-71
2022/01/21 01:30:10;;;;;;;15.18;3.05;;;1.80;99.90;;;;;;5106866;28;20447;-72
2022/01/21 01:32:37;;;;;;;13.13;2.75;;;1.80;99.90;;;;;;5107455;28;20226;-72
2022/01/21 01:35:05;;;;;;;7.75;2.42;;;1.70;99.90;;;;;;5108199;28;20176;-71
2022/01/21 01:37:47;;;;;;;13.98;3.55;;;1.80;99.90;;;;;;5107799;28;20178;-71
2022/01/21 01:40:22;;;;;;;16.10;3.60;;;1.80;99.90;;;;;;5107459;28;20224;-72
2022/01/21 01:43:10;;;;;;;20.08;3.35;;;1.90;99.90;;;;;;5089616;28;20296;-72
2022/01/21 01:51:04;;;;;;;7.68;2.42;;;2.00;99.90;;;;;;5075449;28;20221;-72
2022/01/21 01:53:37;;;;;;;6.85;3.20;;;2.00;99.90;;;;;;5107535;28;20222;-71
2022/01/21 01:56:08;;;;;;;9.02;2.75;;;2.00;99.90;;;;;;5107565;28;20217;-71
2022/01/21 01:58:37;;;;;;;13.80;3.15;;;2.10;99.90;;;;;;5107257;28;20190;-70
2022/01/21 02:01:04;;;;;;;14.10;3.60;;;2.10;99.90;;;;;;5106503;28;20222;-71
2022/01/21 02:03:32;;;;;;;9.10;2.75;;;2.10;99.90;;;;;;5107181;28;20190;-71
2022/01/21 02:05:59;;;;;;;14.35;4.05;;;2.20;99.90;;;;;;5106551;28;20201;-71
2022/01/21 02:08:27;;;;;;;6.20;2.08;;;2.30;99.90;;;;;;5106844;28;20260;-70
2022/01/21 02:10:54;;;;;;;11.18;2.30;;;2.30;99.90;;;;;;5106335;28;20226;-70
2022/01/21 02:13:23;;;;;;;9.73;2.72;;;2.40;99.90;;;;;;5106813;28;20174;-71
2022/01/21 02:16:09;;;;;;;13.30;3.38;;;2.40;99.90;;;;;;5106973;28;20190;-71
2022/01/21 02:21:31;;;;;;;14.60;2.70;;;2.50;99.90;;;;;;5102391;28;20262;-71
2022/01/21 02:23:59;;;;;;;18.80;3.13;;;2.50;99.90;;;;;;5105491;28;20197;-71
2022/01/21 02:26:26;;;;;;;13.43;2.58;;;2.60;99.90;;;;;;5105737;28;20449;-70
2022/01/21 02:28:54;;;;;;;11.45;4.28;;;2.70;99.90;;;;;;5106450;28;20194;-70
2022/01/21 02:31:22;;;;;;;12.90;2.30;;;2.70;99.90;;;;;;5105670;28;20286;-71
2022/01/21 02:33:49;;;;;;;12.20;4.43;;;2.80;99.90;;;;;;5106394;28;20198;-71
2022/01/21 02:36:16;;;;;;;7.00;2.80;;;2.90;99.90;;;;;;5106054;28;20413;-71
2022/01/21 02:38:45;;;;;;;10.98;2.65;;;3.00;99.90;;;;;;5106464;28;20197;-72
2022/01/21 02:41:12;;;;;;;8.35;2.20;;;3.00;99.90;;;;;;5096541;28;20232;-70
2022/01/21 02:43:39;;;;;;;9.07;3.22;;;3.00;99.90;;;;;;5105888;28;20206;-72
2022/01/21 02:46:08;;;;;;;13.05;2.30;;;3.10;99.90;;;;;;5106786;28;20189;-71
2022/01/21 02:48:37;;;;;;;17.27;3.00;;;3.00;99.90;;;;;;5106667;28;20259;-71
2022/01/21 02:51:07;;;;;;;4.63;3.22;;;3.10;99.90;;;;;;5106866;28;20221;-71
2022/01/21 02:54:03;;;;;;;7.05;3.22;;;3.00;99.90;;;;;;5107466;28;20198;-71
2022/01/21 02:56:29;;;;;;;5.38;2.15;;;3.00;99.90;;;;;;5126727;28;20369;-72
2022/01/21 02:58:57;;;;;;;10.15;2.50;;;3.10;99.90;;;;;;5131999;28;20202;-70
2022/01/21 03:01:25;;;;;;;8.95;2.65;;;3.10;99.90;;;;;;5131890;28;20242;-71
2022/01/21 03:03:54;;;;;;;11.15;2.90;;;3.10;99.90;;;;;;5134510;28;20196;-70
2022/01/21 03:06:23;;;;;;;5.43;2.70;;;3.10;99.90;;;;;;5132804;28;20215;-72
2022/01/21 03:08:53;;;;;;;9.55;1.77;;;3.10;99.90;;;;;;5129149;28;20196;-70
2022/01/21 03:11:22;;;;;;;7.28;4.32;;;3.10;99.90;;;;;;5125745;28;20221;-71
2022/01/21 03:13:52;;;;;;;11.73;2.35;;;3.00;99.90;;;;;;5106243;28;20250;-70
2022/01/21 03:16:19;;;;;;;6.55;2.70;;;3.00;99.90;;;;;;5105761;28;20421;-70
2022/01/21 03:18:46;;;;;;;9.93;2.28;;;3.10;99.90;;;;;;5110299;28;20209;-71
2022/01/21 03:21:16;;;;;;;23.67;4.15;;;3.10;99.90;;;;;;5108579;28;20448;-71
2022/01/21 03:23:46;;;;;;;10.57;2.85;;;3.10;99.90;;;;;;5108887;28;20194;-71
2022/01/21 03:26:16;;;;;;;11.05;1.95;;;3.10;99.90;;;;;;5115206;27;20202;-71
2022/01/21 03:28:44;;;;;;;8.85;2.58;;;3.10;99.90;;;;;;5101597;28;20261;-71
2022/01/21 03:31:12;;;;;;;11.68;3.78;;;3.10;99.90;;;;;;5109107;28;20217;-71
2022/01/21 03:33:40;;;;;;;14.07;2.55;;;3.10;99.90;;;;;;5109814;28;20312;-71
2022/01/21 03:36:08;;;;;;;5.18;1.63;;;3.20;99.90;;;;;;5109718;28;20278;-70
2022/01/21 03:38:35;;;;;;;7.82;2.38;;;3.20;99.90;;;;;;5109069;28;20186;-71
2022/01/21 03:41:02;;;;;;;10.43;3.08;;;3.20;99.90;;;;;;5109075;28;20211;-71
2022/01/21 03:43:29;;;;;;;4.70;1.20;;;3.30;99.90;;;;;;5109722;28;20185;-72
2022/01/21 03:45:56;;;;;;;12.82;2.95;;;3.30;99.90;;;;;;5109828;28;20221;-71
2022/01/21 03:48:25;;;;;;;7.07;1.92;;;3.40;99.90;;;;;;5109657;28;20222;-71
2022/01/21 03:50:52;;;;;;;15.93;2.33;;;3.30;99.90;;;;;;5109150;28;20190;-71
2022/01/21 03:53:19;;;;;;;9.65;2.65;;;3.30;99.90;;;;;;5109506;28;20243;-71
2022/01/21 03:55:46;;;;;;;7.68;2.20;;;3.30;99.90;;;;;;5109489;28;20175;-71
2022/01/21 03:58:14;;;;;;;5.57;1.70;;;3.30;99.90;;;;;;5109711;28;20210;-72
2022/01/21 04:00:44;;;;;;;10.80;2.20;;;3.30;99.90;;;;;;5108774;28;20185;-70
2022/01/21 04:03:11;;;;;;;3.90;1.83;;;3.30;99.90;;;;;;5109463;28;20313;-70
2022/01/21 04:05:41;;;;;;;10.93;1.83;;;3.20;99.90;;;;;;5109317;28;20190;-72
2022/01/21 04:08:11;;;;;;;5.68;2.25;;;3.20;99.90;;;;;;5109685;28;20222;-72
2022/01/21 04:10:41;;;;;;;7.13;1.90;;;3.20;99.90;;;;;;5108286;28;20197;-70
2022/01/21 04:13:14;;;;;;;12.30;4.38;;;3.20;99.90;;;;;;5109674;28;20206;-70
2022/01/21 04:15:45;;;;;;;16.35;2.78;;;3.30;99.90;;;;;;5108823;28;20266;-70
2022/01/21 04:18:13;;;;;;;12.55;2.95;;;3.30;99.90;;;;;;5109321;28;20205;-71
2022/01/21 04:20:42;;;;;;;9.38;2.83;;;3.30;99.90;;;;;;5108484;28;20198;-70
2022/01/21 04:23:10;;;;;;;10.85;2.45;;;3.40;99.90;;;;;;5108178;28;20429;-70
2022/01/21 04:25:37;;;;;;;9.57;2.88;;;3.30;99.90;;;;;;5095467;28;20289;-71
2022/01/21 04:28:04;;;;;;;7.75;2.25;;;3.30;99.90;;;;;;5095421;28;20601;-72
2022/01/21 04:30:32;;;;;;;15.02;3.10;;;3.30;99.90;;;;;;5094159;28;20331;-71
2022/01/21 04:32:59;;;;;;;6.05;2.58;;;3.30;99.90;;;;;;5095319;28;20296;-71
2022/01/21 04:35:26;;;;;;;11.13;2.08;;;3.30;99.90;;;;;;5095301;28;20606;-70
2022/01/21 04:37:57;;;;;;;8.30;1.25;;;3.40;99.90;;;;;;5095340;28;20247;-71
2022/01/21 04:40:28;;;;;;;4.22;2.05;;;3.40;99.90;;;;;;5093830;28;20248;-70
2022/01/21 04:48:24;;;;;;;15.35;2.80;;;3.20;99.90;;;;;;5095036;28;20343;-72
2022/01/21 04:50:57;;;;;;;6.50;2.42;;;3.20;99.90;;;;;;5095318;28;20289;-71
2022/01/21 04:53:27;;;;;;;8.35;2.53;;;3.20;99.90;;;;;;5094745;28;20296;-71
2022/01/21 04:55:55;;;;;;;8.25;2.78;;;3.20;99.90;;;;;;5094967;28;20616;-71
2022/01/21 04:58:22;;;;;;;7.43;2.38;;;3.20;99.90;;;;;;5095274;28;20554;-72
2022/01/21 05:00:49;;;;;;;11.63;2.20;;;3.30;99.90;;;;;;5094384;28;20210;-72
2022/01/21 05:03:17;;;;;;;6.00;1.98;;;3.20;99.90;;;;;;5094812;28;20218;-72
2022/01/21 05:05:44;;;;;;;14.35;3.42;;;3.20;99.90;;;;;;5094884;28;20198;-71
2022/01/21 05:08:21;;;;;;;9.32;2.40;;;3.20;99.90;;;;;;5094995;28;20301;-71
2022/01/21 05:10:50;;;;;;;12.57;3.08;;;3.20;99.90;;;;;;5093848;28;20651;-72
2022/01/21 05:13:21;;;;;;;13.15;3.05;;;3.20;99.90;;;;;;5094661;28;20195;-72
2022/01/21 05:16:01;;;;;;;8.25;1.70;;;3.20;99.90;;;;;;5094521;28;20198;-71
2022/01/21 05:18:28;;;;;;;5.60;1.75;;;3.20;99.90;;;;;;5094950;28;20198;-71
2022/01/21 05:20:57;;;;;;;7.43;3.13;;;3.30;99.90;;;;;;5094150;28;20283;-71
2022/01/21 05:23:27;;;;;;;11.57;1.92;;;3.30;99.90;;;;;;5095102;28;20234;-69
2022/01/21 05:25:59;;;;;;;8.70;2.30;;;3.40;99.90;;;;;;5094946;28;20228;-71
2022/01/21 05:28:26;;;;;;;14.70;3.22;;;3.40;99.90;;;;;;5094803;28;20226;-71
2022/01/21 05:30:54;;;;;;;5.53;2.10;;;3.40;99.90;;;;;;5094510;28;20728;-70
2022/01/21 05:33:21;;;;;;;9.55;2.15;;;3.50;99.90;;;;;;5094816;28;20346;-72
2022/01/21 05:35:48;;;;;;;28.00;3.30;;;3.50;99.90;;;;;;5094747;28;20244;-71
2022/01/21 05:38:15;;;;;;;11.15;2.45;;;3.50;99.90;;;;;;5094364;28;20232;-70
2022/01/21 05:40:43;;;;;;;18.02;4.88;;;3.50;99.90;;;;;;5093252;28;20206;-71
2022/01/21 05:43:12;;;;;;;4.72;2.13;;;3.60;99.90;;;;;;5095412;28;20194;-72
2022/01/21 05:48:23;;;;;;;6.25;2.08;;;3.60;99.90;;;;;;5094069;28;20233;-72
2022/01/21 05:50:50;;;;;;;5.72;2.38;;;3.70;99.90;;;;;;5093304;28;20241;-71
2022/01/21 05:53:17;;;;;;;9.63;2.22;;;3.60;99.90;;;;;;5094463;28;20446;-72
2022/01/21 05:55:44;;;;;;;9.88;3.08;;;3.60;99.90;;;;;;5094827;28;20584;-72
2022/01/21 05:58:13;;;;;;;8.02;2.75;;;3.60;99.90;;;;;;5094544;28;20190;-73
2022/01/21 06:00:43;;;;;;;10.32;2.63;;;3.50;99.90;;;;;;5093070;28;20320;-72
2022/01/21 06:03:10;;;;;;;17.95;3.97;;;3.40;99.90;;;;;;5092623;28;20218;-72
2022/01/21 06:05:37;;;;;;;9.80;2.75;;;3.30;99.90;;;;;;5093898;28;20435;-72
2022/01/21 06:08:06;;;;;;;10.27;3.50;;;3.30;99.90;;;;;;5093650;28;20217;-72
2022/01/21 06:10:33;;;;;;;14.25;4.00;;;3.40;99.90;;;;;;5092646;28;20194;-73
2022/01/21 06:13:00;;;;;;;7.68;2.78;;;3.40;99.90;;;;;;5093256;28;20206;-72
2022/01/21 06:15:29;;;;;;;10.27;2.22;;;3.50;99.90;;;;;;5093432;28;20234;-71
2022/01/21 06:17:56;;;;;;;8.63;3.35;;;3.50;99.90;;;;;;5093618;28;20269;-71
2022/01/21 06:20:23;;;;;;;18.25;2.83;;;3.50;99.90;;;;;;5089951;28;20248;-74
2022/01/21 06:22:51;;;;;;;8.32;2.35;;;3.50;99.90;;;;;;5093256;28;20239;-72
2022/01/21 06:25:18;;;;;;;8.68;2.30;;;3.60;99.90;;;;;;5093701;28;20209;-71
2022/01/21 06:27:45;;;;;;;7.60;2.40;;;3.50;99.90;;;;;;5093782;28;20210;-72
2022/01/21 06:30:13;;;;;;;5.72;1.98;;;3.50;99.90;;;;;;5092996;28;20205;-74
2022/01/21 06:32:42;;;;;;;13.27;2.17;;;3.60;99.90;;;;;;5085566;28;20229;-72
2022/01/21 06:35:18;;;;;;;11.63;2.90;;;3.60;99.90;;;;;;5077841;28;20195;-72
2022/01/21 06:37:45;;;;;;;10.43;2.95;;;3.60;99.90;;;;;;5084940;28;20225;-72
2022/01/21 06:40:12;;;;;;;9.82;2.78;;;3.60;99.90;;;;;;5092393;28;20241;-73
2022/01/21 06:42:39;;;;;;;11.57;2.92;;;3.60;99.90;;;;;;5091536;28;20599;-71
2022/01/21 06:45:06;;;;;;;9.93;2.75;;;3.70;99.90;;;;;;5093956;28;20202;-70
2022/01/21 06:47:34;;;;;;;29.52;4.30;;;3.70;99.90;;;;;;5092866;28;20198;-71
2022/01/21 06:50:02;;;;;;;10.95;2.05;;;3.70;99.90;;;;;;5091891;28;20664;-72
2022/01/21 06:52:30;;;;;;;6.53;1.83;;;3.60;99.90;;;;;;5098379;28;20312;-71
2022/01/21 06:55:04;;;;;;;9.00;1.92;;;3.70;99.90;;;;;;5099681;28;20305;-72
2022/01/21 06:57:31;;;;;;;9.80;2.90;;;3.60;99.90;;;;;;5098042;28;20668;-70
2022/01/21 06:59:58;;;;;;;13.82;2.13;;;3.60;99.90;;;;;;5098926;28;20304;-71
2022/01/21 07:02:25;;;;;;;7.15;1.73;;;3.60;99.90;;;;;;5099653;28;20296;-70
2022/01/21 07:04:53;;;;;;;6.80;3.58;;;3.50;99.90;;;;;;5099394;28;20259;-69
2022/01/21 07:07:22;;;;;;;6.78;2.00;;;3.50;99.90;;;;;;5099330;28;20202;-72
2022/01/21 07:09:50;;;;;;;7.43;2.15;;;3.50;99.90;;;;;;5098585;28;20292;-72
2022/01/21 07:12:17;;;;;;;10.27;3.30;;;3.50;99.90;;;;;;5098894;28;20216;-69
2022/01/21 07:14:45;;;;;;;10.68;4.05;;;3.50;99.90;;;;;;5099211;28;20290;-70
2022/01/21 07:17:12;;;;;;;14.57;3.83;;;3.50;99.90;;;;;;5090950;28;20201;-69
2022/01/21 07:19:39;;;;;;;12.27;2.40;;;3.60;99.90;;;;;;5091278;28;20692;-71
2022/01/21 07:22:06;;;;;;;8.43;2.17;;;3.50;99.90;;;;;;5094915;28;20312;-72
2022/01/21 07:24:35;;;;;;;8.48;2.38;;;3.60;99.90;;;;;;5083937;28;20195;-72
2022/01/21 07:27:02;;;;;;;9.20;2.90;;;3.60;99.90;;;;;;5086961;28;20206;-72
2022/01/21 07:29:30;;;;;;;7.32;2.33;;;3.50;99.90;;;;;;5086311;28;20222;-70
2022/01/21 07:31:57;;;;;;;11.48;2.65;;;3.50;99.90;;;;;;5094854;28;20348;-71
2022/01/21 07:34:26;;;;;;;8.02;2.72;;;3.50;99.90;;;;;;5098542;28;20274;-72
2022/01/21 07:36:53;;;;;;;8.18;2.58;;;3.50;99.90;;;;;;5097910;28;20668;-72
2022/01/21 07:39:20;;;;;;;7.53;3.05;;;3.50;99.90;;;;;;5098582;28;20281;-71
2022/01/21 07:41:49;;;;;;;9.68;2.20;;;3.60;99.90;;;;;;5097899;28;20303;-70
2022/01/21 07:44:17;;;;;;;12.45;3.95;;;3.70;99.90;;;;;;5099011;28;20279;-72
2022/01/21 07:46:46;;;;;;;9.93;3.80;;;3.70;99.90;;;;;;5099731;28;20263;-72
2022/01/21 07:49:13;;;;;;;12.90;3.13;;;3.70;99.90;;;;;;5095414;28;20263;-73
2022/01/21 07:51:41;;;;;;;11.30;3.38;;;3.80;99.90;;;;;;5099343;28;20222;-70
2022/01/21 07:54:08;;;;;;;12.70;3.20;;;3.80;99.90;;;;;;5099551;28;20237;-71
2022/01/21 07:56:36;;;;;;;4.75;2.25;;;3.90;99.90;;;;;;5099986;28;20220;-69
2022/01/21 07:59:06;;;;;;;12.23;4.63;;;3.90;99.90;;;;;;5101176;28;20290;-71
2022/01/21 08:01:33;;;;;;;11.75;3.00;;;3.70;99.90;;;;;;5099577;28;20257;-70
2022/01/21 08:04:00;;;;;;;6.45;2.28;;;3.80;99.90;;;;;;5095751;28;20306;-72
2022/01/21 08:06:27;;;;;;;7.03;3.35;;;3.80;99.90;;;;;;5096910;28;20255;-70
2022/01/21 08:08:55;;;;;;;8.23;4.05;;;3.60;99.90;;;;;;5095095;28;20210;-72
2022/01/21 08:11:24;;;;;;;12.60;3.67;;;3.80;99.90;;;;;;5092969;28;20253;-73
2022/01/21 08:13:51;;;;;;;7.95;2.67;;;3.80;99.90;;;;;;5092964;28;20285;-73
2022/01/21 08:16:21;;;;;;;9.93;2.83;;;3.90;99.90;;;;;;5088183;28;20274;-71
2022/01/21 08:18:48;;;;;;;11.27;2.90;;;4.10;99.90;;;;;;5081603;28;20190;-72
2022/01/21 08:21:18;;;;;;;7.10;3.40;;;4.40;99.90;;;;;;5084480;28;20275;-71
2022/01/21 08:23:46;;;;;;;16.05;3.58;;;4.50;99.90;;;;;;5094998;28;20206;-71
2022/01/21 08:26:13;;;;;;;8.07;3.42;;;4.60;99.90;;;;;;5094525;28;20649;-72
2022/01/21 08:28:40;;;;;;;7.18;3.05;;;4.50;99.90;;;;;;5094791;28;20615;-71
2022/01/21 08:31:07;;;;;;;11.27;3.67;;;4.50;99.90;;;;;;5093928;28;20306;-72
2022/01/21 08:33:36;;;;;;;8.55;3.20;;;4.40;99.90;;;;;;5093448;28;20271;-71
2022/01/21 08:36:04;;;;;;;9.07;3.75;;;4.50;99.90;;;;;;5093735;28;20285;-72
2022/01/21 08:38:31;;;;;;;14.95;3.38;;;4.50;99.90;;;;;;5093928;28;20202;-71
2022/01/21 08:40:58;;;;;;;16.13;3.47;;;4.50;99.90;;;;;;5093728;28;20313;-71
2022/01/21 08:43:25;;;;;;;6.35;2.90;;;4.50;99.90;;;;;;5093946;28;20199;-71
2022/01/21 08:45:52;;;;;;;12.68;3.67;;;4.50;99.90;;;;;;5094332;28;20275;-72
2022/01/21 08:48:19;;;;;;;7.03;3.58;;;4.50;99.90;;;;;;5094385;28;20234;-72
2022/01/21 08:50:48;;;;;;;8.75;3.25;;;4.60;99.90;;;;;;5090981;28;20202;-70
2022/01/21 08:55:56;;;;;;;12.85;3.00;;;5.10;99.90;;;;;;5078987;28;20203;-71
2022/01/21 08:58:24;;;;;;;15.77;2.63;;;5.40;99.90;;;;;;5093197;28;20241;-70
2022/01/21 09:00:52;;;;;;;9.02;3.53;;;5.50;99.90;;;;;;5093279;28;20264;-71
2022/01/21 09:03:19;;;;;;;13.23;4.40;;;5.50;99.90;;;;;;5094715;28;20195;-71
2022/01/21 09:05:50;;;;;;;15.07;3.28;;;5.50;99.90;;;;;;5095260;28;20702;-71
2022/01/21 09:08:18;;;;;;;13.00;3.47;;;5.40;99.90;;;;;;5093573;28;20234;-72
2022/01/21 09:10:45;;;;;;;7.85;2.55;;;5.40;99.90;;;;;;5096083;28;20226;-71
2022/01/21 09:13:14;;;;;;;9.65;2.90;;;5.40;99.90;;;;;;5094148;28;20285;-71
2022/01/21 09:15:41;;;;;;;8.65;2.42;;;5.40;99.90;;;;;;5092912;28;20315;-71
2022/01/21 09:18:09;;;;;;;14.68;3.63;;;5.40;99.90;;;;;;5094051;28;20648;-71
2022/01/21 09:20:38;;;;;;;8.02;3.60;;;5.30;99.90;;;;;;5093269;28;20532;-71
2022/01/21 09:23:07;;;;;;;9.43;3.22;;;5.40;99.90;;;;;;5094413;28;20206;-71
2022/01/21 09:25:34;;;;;;;5.10;2.55;;;5.50;99.90;;;;;;5094111;28;20189;-72
2022/01/21 09:28:01;;;;;;;5.53;2.72;;;5.70;99.90;;;;;;5093993;28;20231;-71
2022/01/21 09:30:28;;;;;;;6.78;2.38;;;6.00;99.90;;;;;;5093385;28;20203;-71
2022/01/21 09:32:56;;;;;;;6.05;3.10;;;6.50;99.90;;;;;;5089130;28;20279;-71
2022/01/21 09:35:23;;;;;;;6.03;2.70;;;7.00;99.90;;;;;;5083798;28;20234;-72
2022/01/21 09:37:50;;;;;;;5.03;3.05;;;7.10;99.90;;;;;;5093685;28;20238;-72
2022/01/21 09:40:19;;;;;;;11.85;2.53;;;7.20;99.90;;;;;;5093066;28;20191;-72
2022/01/21 09:42:46;;;;;;;10.68;2.00;;;7.10;99.90;;;;;;5088399;28;20629;-72
2022/01/21 09:45:15;;;;;;;6.30;2.65;;;6.80;99.90;;;;;;5093362;28;20654;-70
2022/01/21 09:47:47;;;;;;;7.30;2.75;;;6.70;99.90;;;;;;5093865;28;20243;-71
2022/01/21 09:50:16;;;;;;;12.80;2.17;;;6.80;99.90;;;;;;5092403;28;20233;-72
2022/01/21 09:52:45;;;;;;;6.90;2.50;;;7.70;99.90;;;;;;5090434;28;20226;-72
2022/01/21 09:55:13;;;;;;;11.10;2.95;;;8.40;99.90;;;;;;5093447;28;20206;-73
2022/01/21 09:57:42;;;;;;;6.85;2.72;;;8.90;99.90;;;;;;5093233;28;20620;-72
2022/01/21 10:00:11;;;;;;;7.68;2.15;;;8.60;99.90;;;;;;5088281;28;20195;-73
2022/01/21 10:02:40;;;;;;;11.05;2.58;;;7.90;99.90;;;;;;5092791;28;20350;-73
2022/01/21 10:05:08;;;;;;;9.30;2.30;;;7.60;99.90;;;;;;5093364;28;20591;-73
2022/01/21 10:07:36;;;;;;;7.70;4.05;;;7.20;99.90;;;;;;5092920;28;20280;-73
2022/01/21 10:10:07;;;;;;;9.90;5.55;;;7.00;99.90;;;;;;5091814;28;20245;-73
2022/01/21 10:12:35;;;;;;;6.30;3.17;;;6.90;99.90;;;;;;5092367;28;20582;-72
2022/01/21 10:15:04;;;;;;;9.93;3.33;;;7.00;99.90;;;;;;5092631;28;20201;-72
2022/01/21 10:17:31;;;;;;;8.80;3.05;;;7.30;99.90;;;;;;5092229;28;20761;-73
2022/01/21 10:20:13;;;;;;;6.88;3.47;;;7.30;99.90;;;;;;5091961;28;20659;-73
2022/01/21 10:22:58;;;;;;;12.27;3.60;;;7.20;99.90;;;;;;5091502;28;20648;-73
2022/01/21 10:25:26;;;;;;;9.10;2.20;;;7.10;99.90;;;;;;5091421;28;20649;-73
2022/01/21 10:27:53;;;;;;;11.52;2.75;;;7.10;99.90;;;;;;5091623;28;20250;-72
2022/01/21 10:30:24;;;;;;;11.00;2.83;;;7.20;99.90;;;;;;5091295;28;20256;-72
2022/01/21 10:32:51;;;;;;;5.00;2.15;;;7.30;99.90;;;;;;5092868;28;20304;-72
2022/01/21 10:35:22;;;;;;;7.47;2.83;;;7.40;99.90;;;;;;5092275;28;20692;-72
2022/01/21 10:37:50;;;;;;;9.30;3.80;;;7.40;99.90;;;;;;5092930;28;20280;-73
2022/01/21 10:40:21;;;;;;;8.32;4.65;;;7.40;99.90;;;;;;5091448;28;20204;-74
2022/01/21 10:42:50;;;;;;;8.60;3.42;;;7.40;99.90;;;;;;5092380;28;20232;-73
2022/01/21 10:45:17;;;;;;;7.88;3.25;;;7.40;99.90;;;;;;5092574;28;20226;-73
2022/01/21 10:47:50;;;;;;;9.70;4.53;;;7.30;99.90;;;;;;5092535;28;20216;-73
2022/01/21 10:50:20;;;;;;;20.52;5.30;;;7.10;99.90;;;;;;5091206;28;20237;-73
2022/01/21 10:52:51;;;;;;;14.25;7.53;;;6.90;99.90;;;;;;5092683;28;20225;-73
2022/01/21 10:55:30;;;;;;;9.60;3.80;;;6.90;99.90;;;;;;5094145;28;20626;-73
2022/01/21 10:58:08;;;;;;;9.35;2.97;;;6.80;99.90;;;;;;5091905;28;20547;-73
2022/01/21 11:00:35;;;;;;;18.05;3.28;;;6.60;99.90;;;;;;5091340;28;20272;-74
2022/01/21 11:03:12;;;;;;;7.82;3.72;;;6.60;99.90;;;;;;5092507;28;20201;-74
2022/01/21 11:05:42;;;;;;;11.25;3.78;;;6.50;99.90;;;;;;5092375;28;20201;-73
2022/01/21 11:08:13;;;;;;;11.18;3.53;;;6.50;99.90;;;;;;5089038;28;20208;-73
2022/01/21 11:10:48;;;;;;;9.13;2.97;;;6.50;99.90;;;;;;5085278;28;20248;-72
2022/01/21 11:13:37;;;;;;;11.38;3.45;;;6.30;99.90;;;;;;5092774;28;20587;-72
2022/01/21 11:16:18;;;;;;;8.88;3.20;;;6.30;99.90;;;;;;5085372;28;20281;-71
2022/01/21 11:18:52;;;;;;;8.95;4.20;;;6.20;99.90;;;;;;5092097;28;20669;-71
2022/01/21 11:21:19;;;;;;;13.50;3.40;;;6.10;99.90;;;;;;5090888;28;20218;-73
2022/01/21 11:23:48;;;;;;;15.80;4.55;;;6.10;99.90;;;;;;5092696;28;20206;-70
2022/01/21 11:26:18;;;;;;;16.95;5.38;;;6.00;99.90;;;;;;5092995;28;20245;-72
2022/01/21 11:28:49;;;;;;;19.95;6.55;;;6.00;99.90;;;;;;5085184;28;20204;-74
2022/01/21 11:31:19;;;;;;;17.35;4.90;;;6.10;99.90;;;;;;5090245;28;20687;-72
2022/01/21 11:33:46;;;;;;;10.63;4.95;;;6.20;99.90;;;;;;5093524;28;20203;-73
2022/01/21 11:36:16;;;;;;;12.45;4.93;;;6.20;99.90;;;;;;5094304;28;20208;-73
2022/01/21 11:38:46;;;;;;;16.00;4.60;;;6.20;99.90;;;;;;5095750;28;20248;-73
2022/01/21 11:41:14;;;;;;;17.20;4.05;;;6.30;99.90;;;;;;5095351;28;20688;-71
2022/01/21 11:43:49;;;;;;;12.05;4.45;;;6.40;99.90;;;;;;5095925;28;20204;-71
2022/01/21 11:49:04;;;;;;;10.38;3.53;;;6.40;99.90;;;;;;5064497;28;20284;-73
2022/01/21 11:51:34;;;;;;;12.45;3.90;;;6.40;99.90;;;;;;5088288;28;20567;-71
2022/01/21 11:54:04;;;;;;;12.20;4.32;;;6.40;99.90;;;;;;5095905;28;20307;-72
2022/01/21 11:56:42;;;;;;;13.75;4.05;;;6.50;99.90;;;;;;5095742;28;20233;-72
2022/01/21 11:59:12;;;;;;;7.25;2.85;;;6.40;99.90;;;;;;5095976;28;20246;-71
2022/01/21 12:01:47;;;;;;;11.68;4.15;;;6.40;99.90;;;;;;5094820;28;20226;-72
2022/01/21 12:04:14;;;;;;;13.88;5.95;;;6.40;99.90;;;;;;5095920;28;20651;-72
2022/01/21 12:06:43;;;;;;;11.73;4.15;;;6.40;99.90;;;;;;5095636;28;20211;-72
2022/01/21 12:09:13;;;;;;;13.90;4.60;;;6.40;99.90;;;;;;5095575;28;20207;-73
2022/01/21 12:11:40;;;;;;;25.13;5.28;;;6.40;99.90;;;;;;5095066;28;20241;-73
2022/01/21 12:14:41;;;;;;;10.95;4.55;;;6.40;99.90;;;;;;5095862;28;20209;-72
2022/01/21 12:17:17;;;;;;;10.32;4.22;;;6.50;99.90;;;;;;5072919;28;20205;-72
2022/01/21 12:19:44;;;;;;;9.13;3.42;;;6.50;99.90;;;;;;5075935;28;20209;-72
2022/01/21 12:22:16;;;;;;;13.63;4.55;;;6.70;99.90;;;;;;5094716;28;20254;-74
2022/01/21 12:25:06;;;;;;;12.65;3.75;;;6.80;99.90;;;;;;5095590;28;20283;-73
2022/01/21 12:27:34;;;;;;;16.10;5.30;;;6.80;99.90;;;;;;5077200;28;20225;-73
2022/01/21 12:30:37;;;;;;;12.38;4.22;;;6.80;99.90;;;;;;5094338;28;20242;-74
2022/01/21 12:33:09;;;;;;;19.30;3.40;;;6.90;99.90;;;;;;5090747;28;20583;-74
2022/01/21 12:35:37;;;;;;;11.27;3.20;;;7.00;99.90;;;;;;5095521;28;20266;-74
2022/01/21 12:41:35;;;;;;;22.08;4.32;;;7.10;99.90;;;;;;5084350;28;20231;-72
2022/01/21 12:44:05;;;;;;;17.42;3.70;;;7.10;99.90;;;;;;5094936;28;20712;-73
2022/01/21 12:46:35;;;;;;;14.50;3.50;;;7.20;99.90;;;;;;5095893;28;20281;-73
2022/01/21 12:49:18;;;;;;;13.00;3.50;;;7.30;99.90;;;;;;5095460;28;20216;-73
2022/01/21 12:52:09;;;;;;;10.68;2.95;;;7.40;99.90;;;;;;5091315;28;20267;-73
2022/01/21 12:57:27;;;;;;;10.27;2.72;;;7.50;99.90;;;;;;5094847;28;20579;-73
2022/01/21 12:59:56;;;;;;;12.50;3.55;;;7.50;99.90;;;;;;5095656;28;20224;-73
2022/01/21 13:02:24;;;;;;;8.10;2.92;;;7.60;99.90;;;;;;5095113;28;20251;-73
2022/01/21 13:05:02;;;;;;;17.30;3.42;;;7.60;99.90;;;;;;5094946;28;20241;-74
2022/01/21 13:07:39;;;;;;;15.98;4.78;;;7.60;99.90;;;;;;5095343;28;20255;-75
2022/01/21 13:10:17;;;;;;;12.82;3.45;;;7.60;99.90;;;;;;5071605;28;20301;-73
2022/01/21 13:13:13;;;;;;;13.15;3.10;;;7.50;99.90;;;;;;5094616;28;20225;-73
2022/01/21 13:15:42;;;;;;;10.93;3.33;;;7.40;99.90;;;;;;5095020;28;20209;-73
2022/01/21 13:18:15;;;;;;;10.85;3.67;;;7.40;99.90;;;;;;5094491;28;20370;-73
2022/01/21 13:20:45;;;;;;;11.68;3.95;;;7.50;99.90;;;;;;5094757;28;20202;-73
2022/01/21 13:23:20;;;;;;;23.20;3.80;;;7.50;99.90;;;;;;5095392;28;20205;-73
2022/01/21 13:25:48;;;;;;;10.52;4.70;;;7.60;99.90;;;;;;5095099;28;20221;-73
2022/01/21 13:28:15;;;;;;;15.20;3.70;;;7.60;99.90;;;;;;5094806;28;20236;-74
2022/01/21 13:30:42;;;;;;;13.05;3.83;;;7.70;99.90;;;;;;5093894;28;21371;-73
2022/01/21 13:33:12;;;;;;;10.55;2.67;;;7.80;99.90;;;;;;5094555;28;20231;-74
2022/01/21 13:35:43;;;;;;;15.00;3.70;;;7.60;99.90;;;;;;5094469;28;20225;-72
2022/01/21 13:38:12;;;;;;;8.23;2.95;;;7.60;99.90;;;;;;5094541;28;20209;-73
2022/01/21 13:40:41;;;;;;;17.77;3.65;;;7.50;99.90;;;;;;5093273;28;20728;-73
2022/01/21 13:43:13;;;;;;;15.60;3.38;;;7.50;99.90;;;;;;5094723;28;20213;-72
2022/01/21 13:45:41;;;;;;;9.75;2.75;;;7.50;99.90;;;;;;5094674;28;20226;-74
2022/01/21 13:48:10;;;;;;;21.23;3.08;;;7.50;99.90;;;;;;5094785;28;20207;-73
2022/01/21 13:50:43;;;;;;;12.20;3.72;;;7.40;99.90;;;;;;5093147;28;20654;-74
2022/01/21 13:53:10;;;;;;;17.13;4.45;;;7.40;99.90;;;;;;5094126;28;20223;-72